Portada
METAR-TAF:

METAR-TAF

Aeroports :

Bhopal, Índia

latitud: 23-17-15N, longitud: 77-20-15E, altitud: 524 m

Observació

L'informe es va fer fa 26 hores i 1 minuts, a les 18:00 UTC
Vent 5 kt del Oest/Sud-Oest
Temperatura 23°C
Humitat 100%
Pressió 1002 hPa
Visibilitat: 3000 m
Núvols disperses a una alçada de 1200 ft
Cel ennuvolat a una alçada de 2000 ft
Cel ennuvolat a una alçada de 10000 ft
boirina

METAR: VABP 221800Z 25005KT 3000 BR SCT012 BKN020 BKN100 23/23 Q1002 NOSIG

Hora: 01:31 (20:01 UTC)

Pronòstic

L'informe es va fer fa 3 hores i 1 minuts, a les 17:00 UTC
Pronòstic vàlid del 23 a les 18 UTC al 24 a les 03 UTC
Vent 10 kt del Oest
Visibilitat: 3000 m
Núvols disperses a una alçada de 1000 ft
Núvols disperses a una alçada de 2000 ft
Escasses núvols a una alçada de 3000 ft, Cumulonimbus.
Cel cobert a una alçada de 8000 ft
pluja, tempesta, pluja

TAF: VABP 231700Z 2318/2403 27010KT 3000 -RA TSRA SCT010 SCT020 FEW030CB OVC080

Observacions i pronòstics meteorològics de més de 4000 aeroports (METAR i TAF).

Les estacions disponibles són els punts grocs i vermells al mapa.

Posi el ratolí al punt desitjat per veure el nom de l'estació.

Feu clic per veure les observacions i els pronòstics meteorològics.

Per canviar el mapa: feu clic els botons verds amb una creu de color negre per apropar; al botó verd amb un guió per allunyar la imatge; o en les fletxes verdes per a mapes adjacents.


METAR-TAF: